<?xml version="1.0" encoding="UTF-8" standalone="no" ?>
<gpx xmlns="http://www.topografix.com/GPX/1/1" xmlns:xsi="http://www.w3.org/2001/XMLSchema-instance" xsi:schemaLocation="http://www.topografix.com/GPX/1/1 http://www.topografix.com/GPX/1/1/gpx.xsd" version="1.1" creator="VisuGPX - https://www.visugpx.com">
  <metadata>
    <name>Boucle Bords de Marne Joinville Le Pont</name>
    <desc><![CDATA[Boucle de 16.5 Kms sur les Bords de la Marne à partir de Joinville Le Pont]]></desc>
  </metadata>
  <trk>
    <name><![CDATA[St Maur 16,5 km]]></name>
    <trkseg>
      <trkpt lat="48.82055" lon="2.46401">
        <ele>8.79</ele>
        <time>2011-11-29T08:38:05Z</time>
      </trkpt>
      <trkpt lat="48.82032" lon="2.46394">
        <ele>8.31</ele>
        <time>2011-11-29T08:39:55Z</time>
      </trkpt>
      <trkpt lat="48.81999" lon="2.46415">
        <ele>62.62</ele>
        <time>2011-11-29T08:40:52Z</time>
      </trkpt>
      <trkpt lat="48.81979" lon="2.46377">
        <ele>58.78</ele>
        <time>2011-11-29T08:41:40Z</time>
      </trkpt>
      <trkpt lat="48.81931" lon="2.46276">
        <ele>63.1</ele>
        <time>2011-11-29T08:42:39Z</time>
      </trkpt>
      <trkpt lat="48.81901" lon="2.4631">
        <ele>64.07</ele>
        <time>2011-11-29T08:44:01Z</time>
      </trkpt>
      <trkpt lat="48.81835" lon="2.46168">
        <ele>69.83</ele>
        <time>2011-11-29T08:45:33Z</time>
      </trkpt>
      <trkpt lat="48.81811" lon="2.46163">
        <ele>69.83</ele>
        <time>2011-11-29T08:46:02Z</time>
      </trkpt>
      <trkpt lat="48.8179" lon="2.46196">
        <ele>70.31</ele>
        <time>2011-11-29T08:46:19Z</time>
      </trkpt>
      <trkpt lat="48.81771" lon="2.46228">
        <ele>70.31</ele>
        <time>2011-11-29T08:46:42Z</time>
      </trkpt>
      <trkpt lat="48.81748" lon="2.46264">
        <ele>70.31</ele>
        <time>2011-11-29T08:47:02Z</time>
      </trkpt>
      <trkpt lat="48.81733" lon="2.46294">
        <ele>70.79</ele>
        <time>2011-11-29T08:47:21Z</time>
      </trkpt>
      <trkpt lat="48.81719" lon="2.46323">
        <ele>70.79</ele>
        <time>2011-11-29T08:47:43Z</time>
      </trkpt>
      <trkpt lat="48.81702" lon="2.46344">
        <ele>71.27</ele>
        <time>2011-11-29T08:48:05Z</time>
      </trkpt>
      <trkpt lat="48.81682" lon="2.46353">
        <ele>70.79</ele>
        <time>2011-11-29T08:48:35Z</time>
      </trkpt>
      <trkpt lat="48.81683" lon="2.46406">
        <ele>70.31</ele>
        <time>2011-11-29T08:49:09Z</time>
      </trkpt>
      <trkpt lat="48.8167" lon="2.46448">
        <ele>68.39</ele>
        <time>2011-11-29T08:49:31Z</time>
      </trkpt>
      <trkpt lat="48.81651" lon="2.46507">
        <ele>67.91</ele>
        <time>2011-11-29T08:49:49Z</time>
      </trkpt>
      <trkpt lat="48.81651" lon="2.46517">
        <ele>64.07</ele>
        <time>2011-11-29T08:50:56Z</time>
      </trkpt>
      <trkpt lat="48.81643" lon="2.46525">
        <ele>65.03</ele>
        <time>2011-11-29T08:51:27Z</time>
      </trkpt>
      <trkpt lat="48.8162" lon="2.46577">
        <ele>65.03</ele>
        <time>2011-11-29T08:51:54Z</time>
      </trkpt>
      <trkpt lat="48.81632" lon="2.466">
        <ele>62.14</ele>
        <time>2011-11-29T08:52:25Z</time>
      </trkpt>
      <trkpt lat="48.81595" lon="2.4666">
        <ele>62.14</ele>
        <time>2011-11-29T08:52:52Z</time>
      </trkpt>
      <trkpt lat="48.81599" lon="2.46671">
        <ele>62.62</ele>
        <time>2011-11-29T08:53:19Z</time>
      </trkpt>
      <trkpt lat="48.81556" lon="2.46742">
        <ele>62.14</ele>
        <time>2011-11-29T08:53:57Z</time>
      </trkpt>
      <trkpt lat="48.81529" lon="2.46796">
        <ele>61.18</ele>
        <time>2011-11-29T08:54:31Z</time>
      </trkpt>
      <trkpt lat="48.81517" lon="2.46863">
        <ele>61.18</ele>
        <time>2011-11-29T08:54:55Z</time>
      </trkpt>
      <trkpt lat="48.81517" lon="2.46937">
        <ele>60.22</ele>
        <time>2011-11-29T08:55:21Z</time>
      </trkpt>
      <trkpt lat="48.81518" lon="2.46999">
        <ele>58.3</ele>
        <time>2011-11-29T08:56:09Z</time>
      </trkpt>
      <trkpt lat="48.815" lon="2.47024">
        <ele>56.86</ele>
        <time>2011-11-29T08:56:35Z</time>
      </trkpt>
      <trkpt lat="48.81482" lon="2.47045">
        <ele>54.93</ele>
        <time>2011-11-29T08:56:55Z</time>
      </trkpt>
      <trkpt lat="48.81459" lon="2.47069">
        <ele>53.49</ele>
        <time>2011-11-29T08:57:20Z</time>
      </trkpt>
      <trkpt lat="48.81431" lon="2.47099">
        <ele>53.49</ele>
        <time>2011-11-29T08:57:48Z</time>
      </trkpt>
      <trkpt lat="48.81405" lon="2.47123">
        <ele>53.01</ele>
        <time>2011-11-29T08:58:17Z</time>
      </trkpt>
      <trkpt lat="48.81372" lon="2.47159">
        <ele>52.53</ele>
        <time>2011-11-29T08:58:44Z</time>
      </trkpt>
      <trkpt lat="48.81355" lon="2.47182">
        <ele>53.01</ele>
        <time>2011-11-29T08:59:13Z</time>
      </trkpt>
      <trkpt lat="48.81321" lon="2.47222">
        <ele>54.45</ele>
        <time>2011-11-29T08:59:44Z</time>
      </trkpt>
      <trkpt lat="48.81298" lon="2.47208">
        <ele>56.86</ele>
        <time>2011-11-29T09:00:11Z</time>
      </trkpt>
      <trkpt lat="48.81273" lon="2.47203">
        <ele>58.78</ele>
        <time>2011-11-29T09:00:41Z</time>
      </trkpt>
      <trkpt lat="48.81246" lon="2.47214">
        <ele>57.34</ele>
        <time>2011-11-29T09:01:33Z</time>
      </trkpt>
      <trkpt lat="48.81253" lon="2.4724">
        <ele>57.34</ele>
        <time>2011-11-29T09:03:01Z</time>
      </trkpt>
      <trkpt lat="48.81258" lon="2.47282">
        <ele>56.37</ele>
        <time>2011-11-29T09:05:46Z</time>
      </trkpt>
      <trkpt lat="48.81242" lon="2.47228">
        <ele>56.37</ele>
        <time>2011-11-29T09:08:29Z</time>
      </trkpt>
      <trkpt lat="48.81239" lon="2.47198">
        <ele>56.37</ele>
        <time>2011-11-29T09:10:07Z</time>
      </trkpt>
      <trkpt lat="48.81211" lon="2.47133">
        <ele>53.49</ele>
        <time>2011-11-29T09:11:04Z</time>
      </trkpt>
      <trkpt lat="48.81192" lon="2.47114">
        <ele>52.05</ele>
        <time>2011-11-29T09:11:34Z</time>
      </trkpt>
      <trkpt lat="48.81226" lon="2.47043">
        <ele>50.61</ele>
        <time>2011-11-29T09:11:56Z</time>
      </trkpt>
      <trkpt lat="48.81241" lon="2.46994">
        <ele>50.13</ele>
        <time>2011-11-29T09:12:15Z</time>
      </trkpt>
      <trkpt lat="48.8125" lon="2.4695">
        <ele>49.16</ele>
        <time>2011-11-29T09:12:48Z</time>
      </trkpt>
      <trkpt lat="48.8126" lon="2.46897">
        <ele>49.65</ele>
        <time>2011-11-29T09:13:05Z</time>
      </trkpt>
      <trkpt lat="48.81273" lon="2.46872">
        <ele>48.2</ele>
        <time>2011-11-29T09:14:00Z</time>
      </trkpt>
      <trkpt lat="48.81217" lon="2.46888">
        <ele>46.76</ele>
        <time>2011-11-29T09:14:26Z</time>
      </trkpt>
      <trkpt lat="48.81209" lon="2.46874">
        <ele>46.76</ele>
        <time>2011-11-29T09:15:21Z</time>
      </trkpt>
      <trkpt lat="48.81202" lon="2.46852">
        <ele>43.88</ele>
        <time>2011-11-29T09:16:47Z</time>
      </trkpt>
      <trkpt lat="48.81175" lon="2.46863">
        <ele>43.4</ele>
        <time>2011-11-29T09:17:23Z</time>
      </trkpt>
      <trkpt lat="48.81141" lon="2.46789">
        <ele>40.03</ele>
        <time>2011-11-29T09:17:55Z</time>
      </trkpt>
      <trkpt lat="48.81114" lon="2.4674">
        <ele>38.11</ele>
        <time>2011-11-29T09:18:26Z</time>
      </trkpt>
      <trkpt lat="48.81103" lon="2.46711">
        <ele>37.15</ele>
        <time>2011-11-29T09:18:59Z</time>
      </trkpt>
      <trkpt lat="48.81083" lon="2.46662">
        <ele>35.71</ele>
        <time>2011-11-29T09:19:22Z</time>
      </trkpt>
      <trkpt lat="48.81052" lon="2.46664">
        <ele>35.71</ele>
        <time>2011-11-29T09:19:46Z</time>
      </trkpt>
      <trkpt lat="48.8102" lon="2.46666">
        <ele>35.71</ele>
        <time>2011-11-29T09:20:04Z</time>
      </trkpt>
      <trkpt lat="48.8099" lon="2.46667">
        <ele>34.74</ele>
        <time>2011-11-29T09:20:28Z</time>
      </trkpt>
      <trkpt lat="48.80981" lon="2.46657">
        <ele>35.23</ele>
        <time>2011-11-29T09:20:52Z</time>
      </trkpt>
      <trkpt lat="48.80944" lon="2.46683">
        <ele>34.74</ele>
        <time>2011-11-29T09:21:23Z</time>
      </trkpt>
      <trkpt lat="48.80902" lon="2.46714">
        <ele>34.26</ele>
        <time>2011-11-29T09:21:55Z</time>
      </trkpt>
      <trkpt lat="48.80871" lon="2.46726">
        <ele>33.78</ele>
        <time>2011-11-29T09:22:18Z</time>
      </trkpt>
      <trkpt lat="48.80833" lon="2.46739">
        <ele>33.78</ele>
        <time>2011-11-29T09:22:47Z</time>
      </trkpt>
      <trkpt lat="48.80806" lon="2.46733">
        <ele>34.26</ele>
        <time>2011-11-29T09:23:13Z</time>
      </trkpt>
      <trkpt lat="48.80783" lon="2.46696">
        <ele>34.74</ele>
        <time>2011-11-29T09:23:39Z</time>
      </trkpt>
      <trkpt lat="48.80756" lon="2.46663">
        <ele>34.74</ele>
        <time>2011-11-29T09:24:02Z</time>
      </trkpt>
      <trkpt lat="48.8074" lon="2.46655">
        <ele>33.3</ele>
        <time>2011-11-29T09:24:30Z</time>
      </trkpt>
      <trkpt lat="48.8072" lon="2.46686">
        <ele>33.78</ele>
        <time>2011-11-29T09:24:51Z</time>
      </trkpt>
      <trkpt lat="48.80698" lon="2.46707">
        <ele>33.78</ele>
        <time>2011-11-29T09:25:13Z</time>
      </trkpt>
      <trkpt lat="48.80682" lon="2.46731">
        <ele>33.78</ele>
        <time>2011-11-29T09:25:32Z</time>
      </trkpt>
      <trkpt lat="48.80655" lon="2.46769">
        <ele>32.82</ele>
        <time>2011-11-29T09:26:06Z</time>
      </trkpt>
      <trkpt lat="48.8062" lon="2.46809">
        <ele>33.78</ele>
        <time>2011-11-29T09:26:41Z</time>
      </trkpt>
      <trkpt lat="48.80594" lon="2.46838">
        <ele>34.26</ele>
        <time>2011-11-29T09:27:07Z</time>
      </trkpt>
      <trkpt lat="48.80565" lon="2.46862">
        <ele>33.78</ele>
        <time>2011-11-29T09:27:30Z</time>
      </trkpt>
      <trkpt lat="48.80513" lon="2.46883">
        <ele>34.26</ele>
        <time>2011-11-29T09:28:00Z</time>
      </trkpt>
      <trkpt lat="48.80511" lon="2.46875">
        <ele>34.26</ele>
        <time>2011-11-29T09:28:25Z</time>
      </trkpt>
      <trkpt lat="48.80475" lon="2.46857">
        <ele>38.59</ele>
        <time>2011-11-29T09:29:00Z</time>
      </trkpt>
      <trkpt lat="48.80461" lon="2.46818">
        <ele>41.95</ele>
        <time>2011-11-29T09:29:34Z</time>
      </trkpt>
      <trkpt lat="48.80438" lon="2.46768">
        <ele>39.55</ele>
        <time>2011-11-29T09:30:06Z</time>
      </trkpt>
      <trkpt lat="48.80395" lon="2.46781">
        <ele>38.11</ele>
        <time>2011-11-29T09:30:31Z</time>
      </trkpt>
      <trkpt lat="48.80366" lon="2.46793">
        <ele>36.67</ele>
        <time>2011-11-29T09:30:59Z</time>
      </trkpt>
      <trkpt lat="48.80336" lon="2.46799">
        <ele>36.19</ele>
        <time>2011-11-29T09:31:24Z</time>
      </trkpt>
      <trkpt lat="48.80309" lon="2.46798">
        <ele>35.71</ele>
        <time>2011-11-29T09:31:35Z</time>
      </trkpt>
      <trkpt lat="48.80285" lon="2.46797">
        <ele>36.19</ele>
        <time>2011-11-29T09:31:57Z</time>
      </trkpt>
      <trkpt lat="48.80253" lon="2.4679">
        <ele>35.71</ele>
        <time>2011-11-29T09:32:24Z</time>
      </trkpt>
      <trkpt lat="48.80221" lon="2.46774">
        <ele>36.19</ele>
        <time>2011-11-29T09:32:49Z</time>
      </trkpt>
      <trkpt lat="48.80195" lon="2.46761">
        <ele>35.71</ele>
        <time>2011-11-29T09:33:13Z</time>
      </trkpt>
      <trkpt lat="48.80167" lon="2.46749">
        <ele>36.67</ele>
        <time>2011-11-29T09:33:31Z</time>
      </trkpt>
      <trkpt lat="48.80138" lon="2.46735">
        <ele>36.67</ele>
        <time>2011-11-29T09:34:04Z</time>
      </trkpt>
      <trkpt lat="48.80109" lon="2.46725">
        <ele>36.67</ele>
        <time>2011-11-29T09:34:22Z</time>
      </trkpt>
      <trkpt lat="48.80099" lon="2.46764">
        <ele>35.71</ele>
        <time>2011-11-29T09:34:47Z</time>
      </trkpt>
      <trkpt lat="48.80116" lon="2.46792">
        <ele>34.26</ele>
        <time>2011-11-29T09:35:11Z</time>
      </trkpt>
      <trkpt lat="48.80145" lon="2.46797">
        <ele>34.74</ele>
        <time>2011-11-29T09:35:29Z</time>
      </trkpt>
      <trkpt lat="48.80172" lon="2.46812">
        <ele>34.74</ele>
        <time>2011-11-29T09:35:53Z</time>
      </trkpt>
      <trkpt lat="48.80192" lon="2.46827">
        <ele>34.74</ele>
        <time>2011-11-29T09:36:27Z</time>
      </trkpt>
      <trkpt lat="48.80176" lon="2.4684">
        <ele>34.74</ele>
        <time>2011-11-29T09:37:07Z</time>
      </trkpt>
      <trkpt lat="48.80146" lon="2.46853">
        <ele>34.74</ele>
        <time>2011-11-29T09:37:31Z</time>
      </trkpt>
      <trkpt lat="48.80122" lon="2.4687">
        <ele>35.23</ele>
        <time>2011-11-29T09:37:55Z</time>
      </trkpt>
      <trkpt lat="48.80089" lon="2.46875">
        <ele>36.67</ele>
        <time>2011-11-29T09:38:24Z</time>
      </trkpt>
      <trkpt lat="48.80062" lon="2.46876">
        <ele>36.67</ele>
        <time>2011-11-29T09:38:40Z</time>
      </trkpt>
      <trkpt lat="48.80035" lon="2.46888">
        <ele>34.74</ele>
        <time>2011-11-29T09:39:01Z</time>
      </trkpt>
      <trkpt lat="48.80009" lon="2.46897">
        <ele>36.67</ele>
        <time>2011-11-29T09:39:17Z</time>
      </trkpt>
      <trkpt lat="48.79992" lon="2.46895">
        <ele>38.59</ele>
        <time>2011-11-29T09:39:40Z</time>
      </trkpt>
      <trkpt lat="48.79991" lon="2.46933">
        <ele>37.15</ele>
        <time>2011-11-29T09:40:25Z</time>
      </trkpt>
      <trkpt lat="48.79981" lon="2.46941">
        <ele>36.19</ele>
        <time>2011-11-29T09:41:09Z</time>
      </trkpt>
      <trkpt lat="48.79941" lon="2.46961">
        <ele>36.19</ele>
        <time>2011-11-29T09:42:36Z</time>
      </trkpt>
      <trkpt lat="48.79925" lon="2.46949">
        <ele>36.67</ele>
        <time>2011-11-29T09:42:58Z</time>
      </trkpt>
      <trkpt lat="48.7992" lon="2.4691">
        <ele>36.67</ele>
        <time>2011-11-29T09:43:21Z</time>
      </trkpt>
      <trkpt lat="48.79914" lon="2.46841">
        <ele>37.63</ele>
        <time>2011-11-29T09:43:45Z</time>
      </trkpt>
      <trkpt lat="48.79946" lon="2.46826">
        <ele>39.07</ele>
        <time>2011-11-29T09:44:21Z</time>
      </trkpt>
      <trkpt lat="48.79931" lon="2.46711">
        <ele>35.71</ele>
        <time>2011-11-29T09:46:05Z</time>
      </trkpt>
      <trkpt lat="48.79892" lon="2.46714">
        <ele>35.71</ele>
        <time>2011-11-29T09:46:37Z</time>
      </trkpt>
      <trkpt lat="48.79859" lon="2.46723">
        <ele>36.67</ele>
        <time>2011-11-29T09:47:03Z</time>
      </trkpt>
      <trkpt lat="48.79829" lon="2.46736">
        <ele>35.71</ele>
        <time>2011-11-29T09:47:26Z</time>
      </trkpt>
      <trkpt lat="48.79802" lon="2.46754">
        <ele>35.71</ele>
        <time>2011-11-29T09:48:02Z</time>
      </trkpt>
      <trkpt lat="48.7978" lon="2.46775">
        <ele>35.23</ele>
        <time>2011-11-29T09:48:29Z</time>
      </trkpt>
      <trkpt lat="48.7975" lon="2.468">
        <ele>36.19</ele>
        <time>2011-11-29T09:48:52Z</time>
      </trkpt>
      <trkpt lat="48.79724" lon="2.46819">
        <ele>35.71</ele>
        <time>2011-11-29T09:49:17Z</time>
      </trkpt>
      <trkpt lat="48.79698" lon="2.46822">
        <ele>35.71</ele>
        <time>2011-11-29T09:49:31Z</time>
      </trkpt>
      <trkpt lat="48.7967" lon="2.46821">
        <ele>36.19</ele>
        <time>2011-11-29T09:49:56Z</time>
      </trkpt>
      <trkpt lat="48.79643" lon="2.46819">
        <ele>35.71</ele>
        <time>2011-11-29T09:50:11Z</time>
      </trkpt>
      <trkpt lat="48.79616" lon="2.46814">
        <ele>36.67</ele>
        <time>2011-11-29T09:50:34Z</time>
      </trkpt>
      <trkpt lat="48.79599" lon="2.46826">
        <ele>37.15</ele>
        <time>2011-11-29T09:52:10Z</time>
      </trkpt>
      <trkpt lat="48.79572" lon="2.46856">
        <ele>37.15</ele>
        <time>2011-11-29T09:52:37Z</time>
      </trkpt>
      <trkpt lat="48.79579" lon="2.46896">
        <ele>36.67</ele>
        <time>2011-11-29T09:53:39Z</time>
      </trkpt>
      <trkpt lat="48.79571" lon="2.469">
        <ele>37.15</ele>
        <time>2011-11-29T09:55:00Z</time>
      </trkpt>
      <trkpt lat="48.79568" lon="2.46921">
        <ele>37.15</ele>
        <time>2011-11-29T09:55:25Z</time>
      </trkpt>
      <trkpt lat="48.79573" lon="2.47007">
        <ele>37.15</ele>
        <time>2011-11-29T09:55:47Z</time>
      </trkpt>
      <trkpt lat="48.79528" lon="2.47021">
        <ele>37.15</ele>
        <time>2011-11-29T09:55:59Z</time>
      </trkpt>
      <trkpt lat="48.79509" lon="2.47038">
        <ele>37.15</ele>
        <time>2011-11-29T09:56:09Z</time>
      </trkpt>
      <trkpt lat="48.79506" lon="2.47052">
        <ele>37.15</ele>
        <time>2011-11-29T09:56:21Z</time>
      </trkpt>
      <trkpt lat="48.79494" lon="2.47062">
        <ele>36.67</ele>
        <time>2011-11-29T09:56:38Z</time>
      </trkpt>
      <trkpt lat="48.79453" lon="2.47068">
        <ele>36.67</ele>
        <time>2011-11-29T09:57:31Z</time>
      </trkpt>
      <trkpt lat="48.79434" lon="2.47063">
        <ele>36.67</ele>
        <time>2011-11-29T09:57:45Z</time>
      </trkpt>
      <trkpt lat="48.79419" lon="2.4705">
        <ele>36.67</ele>
        <time>2011-11-29T09:58:09Z</time>
      </trkpt>
      <trkpt lat="48.79389" lon="2.47031">
        <ele>36.67</ele>
        <time>2011-11-29T09:59:03Z</time>
      </trkpt>
      <trkpt lat="48.79341" lon="2.47012">
        <ele>37.63</ele>
        <time>2011-11-29T09:59:41Z</time>
      </trkpt>
      <trkpt lat="48.79341" lon="2.47071">
        <ele>37.15</ele>
        <time>2011-11-29T10:00:09Z</time>
      </trkpt>
      <trkpt lat="48.79319" lon="2.47076">
        <ele>37.63</ele>
        <time>2011-11-29T10:01:10Z</time>
      </trkpt>
      <trkpt lat="48.79295" lon="2.47076">
        <ele>38.11</ele>
        <time>2011-11-29T10:01:38Z</time>
      </trkpt>
      <trkpt lat="48.79274" lon="2.47077">
        <ele>38.11</ele>
        <time>2011-11-29T10:02:16Z</time>
      </trkpt>
      <trkpt lat="48.79221" lon="2.47081">
        <ele>38.11</ele>
        <time>2011-11-29T10:03:27Z</time>
      </trkpt>
      <trkpt lat="48.79193" lon="2.47084">
        <ele>38.59</ele>
        <time>2011-11-29T10:03:54Z</time>
      </trkpt>
      <trkpt lat="48.79168" lon="2.47091">
        <ele>38.59</ele>
        <time>2011-11-29T10:04:07Z</time>
      </trkpt>
      <trkpt lat="48.791" lon="2.47108">
        <ele>39.55</ele>
        <time>2011-11-29T10:05:10Z</time>
      </trkpt>
      <trkpt lat="48.79071" lon="2.47117">
        <ele>39.55</ele>
        <time>2011-11-29T10:05:28Z</time>
      </trkpt>
      <trkpt lat="48.79049" lon="2.47122">
        <ele>40.03</ele>
        <time>2011-11-29T10:06:03Z</time>
      </trkpt>
      <trkpt lat="48.78981" lon="2.47142">
        <ele>39.55</ele>
        <time>2011-11-29T10:06:59Z</time>
      </trkpt>
      <trkpt lat="48.78903" lon="2.4716">
        <ele>40.03</ele>
        <time>2011-11-29T10:08:01Z</time>
      </trkpt>
      <trkpt lat="48.78876" lon="2.47169">
        <ele>40.51</ele>
        <time>2011-11-29T10:08:23Z</time>
      </trkpt>
      <trkpt lat="48.78851" lon="2.47175">
        <ele>41.47</ele>
        <time>2011-11-29T10:08:41Z</time>
      </trkpt>
      <trkpt lat="48.78874" lon="2.47224">
        <ele>42.92</ele>
        <time>2011-11-29T10:09:14Z</time>
      </trkpt>
      <trkpt lat="48.78888" lon="2.47254">
        <ele>42.92</ele>
        <time>2011-11-29T10:10:19Z</time>
      </trkpt>
      <trkpt lat="48.78896" lon="2.47278">
        <ele>45.8</ele>
        <time>2011-11-29T10:13:44Z</time>
      </trkpt>
      <trkpt lat="48.78911" lon="2.47317">
        <ele>46.28</ele>
        <time>2011-11-29T10:14:16Z</time>
      </trkpt>
      <trkpt lat="48.78946" lon="2.47385">
        <ele>46.28</ele>
        <time>2011-11-29T10:14:49Z</time>
      </trkpt>
      <trkpt lat="48.78932" lon="2.47399">
        <ele>41.47</ele>
        <time>2011-11-29T10:15:31Z</time>
      </trkpt>
      <trkpt lat="48.78904" lon="2.47427">
        <ele>40.99</ele>
        <time>2011-11-29T10:15:58Z</time>
      </trkpt>
      <trkpt lat="48.78843" lon="2.47487">
        <ele>41.95</ele>
        <time>2011-11-29T10:16:56Z</time>
      </trkpt>
      <trkpt lat="48.78778" lon="2.4756">
        <ele>43.4</ele>
        <time>2011-11-29T10:17:57Z</time>
      </trkpt>
      <trkpt lat="48.78754" lon="2.47606">
        <ele>41.47</ele>
        <time>2011-11-29T10:18:23Z</time>
      </trkpt>
      <trkpt lat="48.78737" lon="2.4764">
        <ele>41.47</ele>
        <time>2011-11-29T10:18:46Z</time>
      </trkpt>
      <trkpt lat="48.78719" lon="2.47685">
        <ele>40.99</ele>
        <time>2011-11-29T10:19:09Z</time>
      </trkpt>
      <trkpt lat="48.78666" lon="2.47818">
        <ele>42.44</ele>
        <time>2011-11-29T10:20:39Z</time>
      </trkpt>
      <trkpt lat="48.78631" lon="2.47912">
        <ele>41.47</ele>
        <time>2011-11-29T10:21:22Z</time>
      </trkpt>
      <trkpt lat="48.78588" lon="2.48066">
        <ele>39.07</ele>
        <time>2011-11-29T10:22:50Z</time>
      </trkpt>
      <trkpt lat="48.78555" lon="2.48204">
        <ele>40.99</ele>
        <time>2011-11-29T10:24:06Z</time>
      </trkpt>
      <trkpt lat="48.78536" lon="2.4831">
        <ele>40.03</ele>
        <time>2011-11-29T10:25:18Z</time>
      </trkpt>
      <trkpt lat="48.78514" lon="2.48406">
        <ele>39.55</ele>
        <time>2011-11-29T10:26:08Z</time>
      </trkpt>
      <trkpt lat="48.78484" lon="2.48508">
        <ele>41.47</ele>
        <time>2011-11-29T10:26:59Z</time>
      </trkpt>
      <trkpt lat="48.78464" lon="2.48601">
        <ele>40.51</ele>
        <time>2011-11-29T10:27:50Z</time>
      </trkpt>
      <trkpt lat="48.78454" lon="2.48657">
        <ele>41.95</ele>
        <time>2011-11-29T10:28:19Z</time>
      </trkpt>
      <trkpt lat="48.7845" lon="2.48715">
        <ele>42.44</ele>
        <time>2011-11-29T10:28:44Z</time>
      </trkpt>
      <trkpt lat="48.78452" lon="2.48771">
        <ele>40.03</ele>
        <time>2011-11-29T10:29:14Z</time>
      </trkpt>
      <trkpt lat="48.78445" lon="2.48822">
        <ele>40.99</ele>
        <time>2011-11-29T10:29:38Z</time>
      </trkpt>
      <trkpt lat="48.78448" lon="2.48875">
        <ele>39.55</ele>
        <time>2011-11-29T10:30:09Z</time>
      </trkpt>
      <trkpt lat="48.7845" lon="2.48965">
        <ele>41.95</ele>
        <time>2011-11-29T10:31:09Z</time>
      </trkpt>
      <trkpt lat="48.78445" lon="2.49065">
        <ele>40.51</ele>
        <time>2011-11-29T10:31:54Z</time>
      </trkpt>
      <trkpt lat="48.78448" lon="2.49157">
        <ele>43.4</ele>
        <time>2011-11-29T10:32:50Z</time>
      </trkpt>
      <trkpt lat="48.78454" lon="2.49252">
        <ele>42.92</ele>
        <time>2011-11-29T10:33:42Z</time>
      </trkpt>
      <trkpt lat="48.78456" lon="2.49319">
        <ele>42.44</ele>
        <time>2011-11-29T10:34:06Z</time>
      </trkpt>
      <trkpt lat="48.78462" lon="2.49381">
        <ele>43.88</ele>
        <time>2011-11-29T10:39:22Z</time>
      </trkpt>
      <trkpt lat="48.78466" lon="2.49442">
        <ele>43.88</ele>
        <time>2011-11-29T10:42:14Z</time>
      </trkpt>
      <trkpt lat="48.78466" lon="2.49492">
        <ele>40.99</ele>
        <time>2011-11-29T10:42:54Z</time>
      </trkpt>
      <trkpt lat="48.78476" lon="2.49539">
        <ele>42.44</ele>
        <time>2011-11-29T10:43:24Z</time>
      </trkpt>
      <trkpt lat="48.78479" lon="2.49592">
        <ele>42.44</ele>
        <time>2011-11-29T10:43:50Z</time>
      </trkpt>
      <trkpt lat="48.78483" lon="2.49629">
        <ele>40.99</ele>
        <time>2011-11-29T10:44:17Z</time>
      </trkpt>
      <trkpt lat="48.78487" lon="2.49682">
        <ele>40.99</ele>
        <time>2011-11-29T10:44:41Z</time>
      </trkpt>
      <trkpt lat="48.78494" lon="2.49766">
        <ele>39.55</ele>
        <time>2011-11-29T10:45:11Z</time>
      </trkpt>
      <trkpt lat="48.78504" lon="2.4991">
        <ele>38.59</ele>
        <time>2011-11-29T10:46:32Z</time>
      </trkpt>
      <trkpt lat="48.78504" lon="2.50021">
        <ele>40.51</ele>
        <time>2011-11-29T10:47:44Z</time>
      </trkpt>
      <trkpt lat="48.78499" lon="2.50148">
        <ele>40.99</ele>
        <time>2011-11-29T10:49:21Z</time>
      </trkpt>
      <trkpt lat="48.78492" lon="2.5024">
        <ele>40.51</ele>
        <time>2011-11-29T10:50:11Z</time>
      </trkpt>
      <trkpt lat="48.78483" lon="2.50334">
        <ele>40.51</ele>
        <time>2011-11-29T10:51:00Z</time>
      </trkpt>
      <trkpt lat="48.78474" lon="2.50432">
        <ele>39.55</ele>
        <time>2011-11-29T10:52:48Z</time>
      </trkpt>
      <trkpt lat="48.78467" lon="2.50562">
        <ele>39.55</ele>
        <time>2011-11-29T10:54:01Z</time>
      </trkpt>
      <trkpt lat="48.78459" lon="2.50672">
        <ele>42.44</ele>
        <time>2011-11-29T10:55:02Z</time>
      </trkpt>
      <trkpt lat="48.78455" lon="2.50759">
        <ele>41.95</ele>
        <time>2011-11-29T10:56:09Z</time>
      </trkpt>
      <trkpt lat="48.78451" lon="2.50788">
        <ele>41.47</ele>
        <time>2011-11-29T10:56:36Z</time>
      </trkpt>
      <trkpt lat="48.78459" lon="2.50823">
        <ele>41.95</ele>
        <time>2011-11-29T10:57:02Z</time>
      </trkpt>
      <trkpt lat="48.78456" lon="2.50899">
        <ele>41.95</ele>
        <time>2011-11-29T10:57:25Z</time>
      </trkpt>
      <trkpt lat="48.78453" lon="2.50967">
        <ele>41.95</ele>
        <time>2011-11-29T10:57:51Z</time>
      </trkpt>
      <trkpt lat="48.78455" lon="2.51019">
        <ele>39.55</ele>
        <time>2011-11-29T10:58:16Z</time>
      </trkpt>
      <trkpt lat="48.78463" lon="2.51065">
        <ele>41.95</ele>
        <time>2011-11-29T10:58:42Z</time>
      </trkpt>
      <trkpt lat="48.78482" lon="2.51107">
        <ele>40.51</ele>
        <time>2011-11-29T10:59:06Z</time>
      </trkpt>
      <trkpt lat="48.78523" lon="2.51184">
        <ele>40.51</ele>
        <time>2011-11-29T10:59:51Z</time>
      </trkpt>
      <trkpt lat="48.78574" lon="2.51272">
        <ele>48.2</ele>
        <time>2011-11-29T11:28:08Z</time>
      </trkpt>
      <trkpt lat="48.78612" lon="2.5135">
        <ele>47.24</ele>
        <time>2011-11-29T11:29:29Z</time>
      </trkpt>
      <trkpt lat="48.78626" lon="2.51383">
        <ele>48.2</ele>
        <time>2011-11-29T11:29:53Z</time>
      </trkpt>
      <trkpt lat="48.78636" lon="2.51439">
        <ele>50.61</ele>
        <time>2011-11-29T11:30:23Z</time>
      </trkpt>
      <trkpt lat="48.78643" lon="2.51501">
        <ele>51.09</ele>
        <time>2011-11-29T11:31:45Z</time>
      </trkpt>
      <trkpt lat="48.7865" lon="2.51553">
        <ele>50.13</ele>
        <time>2011-11-29T11:32:13Z</time>
      </trkpt>
      <trkpt lat="48.78662" lon="2.51599">
        <ele>49.16</ele>
        <time>2011-11-29T11:32:44Z</time>
      </trkpt>
      <trkpt lat="48.78685" lon="2.51658">
        <ele>50.61</ele>
        <time>2011-11-29T11:33:29Z</time>
      </trkpt>
      <trkpt lat="48.787" lon="2.51705">
        <ele>53.01</ele>
        <time>2011-11-29T11:33:50Z</time>
      </trkpt>
      <trkpt lat="48.78712" lon="2.51737">
        <ele>52.05</ele>
        <time>2011-11-29T11:34:16Z</time>
      </trkpt>
      <trkpt lat="48.78728" lon="2.51769">
        <ele>52.53</ele>
        <time>2011-11-29T11:34:43Z</time>
      </trkpt>
      <trkpt lat="48.7879" lon="2.51852">
        <ele>51.09</ele>
        <time>2011-11-29T11:35:35Z</time>
      </trkpt>
      <trkpt lat="48.78863" lon="2.51935">
        <ele>50.61</ele>
        <time>2011-11-29T11:36:45Z</time>
      </trkpt>
      <trkpt lat="48.78895" lon="2.51974">
        <ele>51.09</ele>
        <time>2011-11-29T11:37:34Z</time>
      </trkpt>
      <trkpt lat="48.78944" lon="2.52016">
        <ele>53.01</ele>
        <time>2011-11-29T11:38:01Z</time>
      </trkpt>
      <trkpt lat="48.78973" lon="2.52038">
        <ele>51.57</ele>
        <time>2011-11-29T11:38:32Z</time>
      </trkpt>
      <trkpt lat="48.79011" lon="2.5207">
        <ele>54.45</ele>
        <time>2011-11-29T11:39:04Z</time>
      </trkpt>
      <trkpt lat="48.79042" lon="2.52084">
        <ele>53.97</ele>
        <time>2011-11-29T11:39:58Z</time>
      </trkpt>
      <trkpt lat="48.79055" lon="2.52083">
        <ele>52.53</ele>
        <time>2011-11-29T11:40:38Z</time>
      </trkpt>
      <trkpt lat="48.79099" lon="2.52116">
        <ele>53.49</ele>
        <time>2011-11-29T11:41:07Z</time>
      </trkpt>
      <trkpt lat="48.79119" lon="2.52112">
        <ele>54.45</ele>
        <time>2011-11-29T11:41:47Z</time>
      </trkpt>
      <trkpt lat="48.79195" lon="2.5214">
        <ele>55.89</ele>
        <time>2011-11-29T11:42:15Z</time>
      </trkpt>
      <trkpt lat="48.79235" lon="2.52165">
        <ele>52.53</ele>
        <time>2011-11-29T11:42:49Z</time>
      </trkpt>
      <trkpt lat="48.7927" lon="2.52185">
        <ele>52.05</ele>
        <time>2011-11-29T11:43:17Z</time>
      </trkpt>
      <trkpt lat="48.79324" lon="2.52196">
        <ele>53.49</ele>
        <time>2011-11-29T11:43:47Z</time>
      </trkpt>
      <trkpt lat="48.79412" lon="2.522">
        <ele>53.97</ele>
        <time>2011-11-29T11:45:08Z</time>
      </trkpt>
      <trkpt lat="48.79502" lon="2.52219">
        <ele>53.49</ele>
        <time>2011-11-29T11:46:11Z</time>
      </trkpt>
      <trkpt lat="48.79608" lon="2.52243">
        <ele>53.49</ele>
        <time>2011-11-29T11:47:52Z</time>
      </trkpt>
      <trkpt lat="48.79671" lon="2.52255">
        <ele>54.93</ele>
        <time>2011-11-29T11:49:58Z</time>
      </trkpt>
      <trkpt lat="48.79727" lon="2.52252">
        <ele>53.49</ele>
        <time>2011-11-29T11:50:25Z</time>
      </trkpt>
      <trkpt lat="48.79781" lon="2.52244">
        <ele>54.45</ele>
        <time>2011-11-29T11:50:49Z</time>
      </trkpt>
      <trkpt lat="48.79825" lon="2.52225">
        <ele>53.49</ele>
        <time>2011-11-29T11:51:15Z</time>
      </trkpt>
      <trkpt lat="48.79902" lon="2.52217">
        <ele>53.97</ele>
        <time>2011-11-29T11:51:45Z</time>
      </trkpt>
      <trkpt lat="48.79947" lon="2.52214">
        <ele>53.49</ele>
        <time>2011-11-29T11:52:09Z</time>
      </trkpt>
      <trkpt lat="48.79994" lon="2.52219">
        <ele>52.53</ele>
        <time>2011-11-29T11:52:34Z</time>
      </trkpt>
      <trkpt lat="48.80035" lon="2.52219">
        <ele>52.53</ele>
        <time>2011-11-29T11:53:00Z</time>
      </trkpt>
      <trkpt lat="48.80074" lon="2.52224">
        <ele>52.05</ele>
        <time>2011-11-29T11:53:29Z</time>
      </trkpt>
      <trkpt lat="48.80113" lon="2.52234">
        <ele>50.61</ele>
        <time>2011-11-29T11:54:11Z</time>
      </trkpt>
      <trkpt lat="48.8017" lon="2.52242">
        <ele>52.53</ele>
        <time>2011-11-29T11:56:10Z</time>
      </trkpt>
      <trkpt lat="48.80272" lon="2.52231">
        <ele>52.05</ele>
        <time>2011-11-29T11:57:29Z</time>
      </trkpt>
      <trkpt lat="48.80351" lon="2.52212">
        <ele>52.53</ele>
        <time>2011-11-29T11:58:24Z</time>
      </trkpt>
      <trkpt lat="48.80426" lon="2.52183">
        <ele>52.05</ele>
        <time>2011-11-29T11:59:23Z</time>
      </trkpt>
      <trkpt lat="48.80447" lon="2.52185">
        <ele>52.05</ele>
        <time>2011-11-29T11:59:46Z</time>
      </trkpt>
      <trkpt lat="48.80461" lon="2.52161">
        <ele>52.05</ele>
        <time>2011-11-29T12:00:12Z</time>
      </trkpt>
      <trkpt lat="48.80524" lon="2.5211">
        <ele>51.57</ele>
        <time>2011-11-29T12:01:35Z</time>
      </trkpt>
      <trkpt lat="48.80607" lon="2.52035">
        <ele>50.13</ele>
        <time>2011-11-29T12:02:51Z</time>
      </trkpt>
      <trkpt lat="48.80693" lon="2.51956">
        <ele>49.16</ele>
        <time>2011-11-29T12:04:18Z</time>
      </trkpt>
      <trkpt lat="48.80764" lon="2.51863">
        <ele>49.65</ele>
        <time>2011-11-29T12:05:41Z</time>
      </trkpt>
      <trkpt lat="48.80821" lon="2.51753">
        <ele>48.2</ele>
        <time>2011-11-29T12:07:26Z</time>
      </trkpt>
      <trkpt lat="48.80867" lon="2.51609">
        <ele>47.72</ele>
        <time>2011-11-29T12:09:00Z</time>
      </trkpt>
      <trkpt lat="48.80904" lon="2.51473">
        <ele>46.76</ele>
        <time>2011-11-29T12:10:14Z</time>
      </trkpt>
      <trkpt lat="48.80928" lon="2.51311">
        <ele>47.24</ele>
        <time>2011-11-29T12:11:51Z</time>
      </trkpt>
      <trkpt lat="48.80949" lon="2.51167">
        <ele>47.24</ele>
        <time>2011-11-29T12:13:19Z</time>
      </trkpt>
      <trkpt lat="48.80953" lon="2.51126">
        <ele>50.13</ele>
        <time>2011-11-29T12:14:11Z</time>
      </trkpt>
      <trkpt lat="48.80954" lon="2.51089">
        <ele>50.61</ele>
        <time>2011-11-29T12:14:47Z</time>
      </trkpt>
      <trkpt lat="48.80955" lon="2.51033">
        <ele>49.65</ele>
        <time>2011-11-29T12:15:13Z</time>
      </trkpt>
      <trkpt lat="48.80955" lon="2.51058">
        <ele>49.16</ele>
        <time>2011-11-29T12:15:57Z</time>
      </trkpt>
      <trkpt lat="48.80945" lon="2.51103">
        <ele>49.65</ele>
        <time>2011-11-29T12:16:25Z</time>
      </trkpt>
      <trkpt lat="48.80949" lon="2.51061">
        <ele>52.53</ele>
        <time>2011-11-29T12:16:53Z</time>
      </trkpt>
      <trkpt lat="48.80951" lon="2.51016">
        <ele>53.01</ele>
        <time>2011-11-29T12:17:21Z</time>
      </trkpt>
      <trkpt lat="48.80961" lon="2.50977">
        <ele>53.49</ele>
        <time>2011-11-29T12:17:51Z</time>
      </trkpt>
      <trkpt lat="48.81006" lon="2.50996">
        <ele>56.37</ele>
        <time>2011-11-29T12:18:16Z</time>
      </trkpt>
      <trkpt lat="48.81043" lon="2.51013">
        <ele>55.41</ele>
        <time>2011-11-29T12:18:42Z</time>
      </trkpt>
      <trkpt lat="48.81065" lon="2.51021">
        <ele>54.45</ele>
        <time>2011-11-29T12:19:07Z</time>
      </trkpt>
      <trkpt lat="48.81072" lon="2.51034">
        <ele>49.16</ele>
        <time>2011-11-29T12:20:03Z</time>
      </trkpt>
      <trkpt lat="48.81069" lon="2.50981">
        <ele>46.76</ele>
        <time>2011-11-29T12:21:01Z</time>
      </trkpt>
      <trkpt lat="48.81072" lon="2.50945">
        <ele>45.8</ele>
        <time>2011-11-29T12:21:28Z</time>
      </trkpt>
      <trkpt lat="48.81066" lon="2.50894">
        <ele>45.8</ele>
        <time>2011-11-29T12:21:58Z</time>
      </trkpt>
      <trkpt lat="48.81072" lon="2.50835">
        <ele>47.24</ele>
        <time>2011-11-29T12:22:24Z</time>
      </trkpt>
      <trkpt lat="48.81074" lon="2.50799">
        <ele>46.76</ele>
        <time>2011-11-29T12:22:52Z</time>
      </trkpt>
      <trkpt lat="48.81069" lon="2.50786">
        <ele>47.24</ele>
        <time>2011-11-29T12:23:18Z</time>
      </trkpt>
      <trkpt lat="48.81083" lon="2.50711">
        <ele>47.24</ele>
        <time>2011-11-29T12:23:50Z</time>
      </trkpt>
      <trkpt lat="48.81085" lon="2.50652">
        <ele>48.2</ele>
        <time>2011-11-29T12:24:11Z</time>
      </trkpt>
      <trkpt lat="48.81093" lon="2.50609">
        <ele>47.72</ele>
        <time>2011-11-29T12:24:33Z</time>
      </trkpt>
      <trkpt lat="48.81103" lon="2.506">
        <ele>46.76</ele>
        <time>2011-11-29T12:24:58Z</time>
      </trkpt>
      <trkpt lat="48.81119" lon="2.50518">
        <ele>47.24</ele>
        <time>2011-11-29T12:25:23Z</time>
      </trkpt>
      <trkpt lat="48.81118" lon="2.50464">
        <ele>46.76</ele>
        <time>2011-11-29T12:25:49Z</time>
      </trkpt>
      <trkpt lat="48.8109" lon="2.50432">
        <ele>48.2</ele>
        <time>2011-11-29T12:27:05Z</time>
      </trkpt>
      <trkpt lat="48.81093" lon="2.50369">
        <ele>48.68</ele>
        <time>2011-11-29T12:27:49Z</time>
      </trkpt>
      <trkpt lat="48.81093" lon="2.50284">
        <ele>48.2</ele>
        <time>2011-11-29T12:28:18Z</time>
      </trkpt>
      <trkpt lat="48.81099" lon="2.50244">
        <ele>49.16</ele>
        <time>2011-11-29T12:28:51Z</time>
      </trkpt>
      <trkpt lat="48.81112" lon="2.50239">
        <ele>53.01</ele>
        <time>2011-11-29T12:30:33Z</time>
      </trkpt>
      <trkpt lat="48.81112" lon="2.50193">
        <ele>53.01</ele>
        <time>2011-11-29T12:31:03Z</time>
      </trkpt>
      <trkpt lat="48.81114" lon="2.50125">
        <ele>53.01</ele>
        <time>2011-11-29T12:31:40Z</time>
      </trkpt>
      <trkpt lat="48.81112" lon="2.50087">
        <ele>51.57</ele>
        <time>2011-11-29T12:32:10Z</time>
      </trkpt>
      <trkpt lat="48.81108" lon="2.50033">
        <ele>53.49</ele>
        <time>2011-11-29T12:32:40Z</time>
      </trkpt>
      <trkpt lat="48.81106" lon="2.49974">
        <ele>52.05</ele>
        <time>2011-11-29T12:33:05Z</time>
      </trkpt>
      <trkpt lat="48.81095" lon="2.49888">
        <ele>53.49</ele>
        <time>2011-11-29T12:33:27Z</time>
      </trkpt>
      <trkpt lat="48.8108" lon="2.49867">
        <ele>52.05</ele>
        <time>2011-11-29T12:33:56Z</time>
      </trkpt>
      <trkpt lat="48.8108" lon="2.49822">
        <ele>48.68</ele>
        <time>2011-11-29T12:34:30Z</time>
      </trkpt>
      <trkpt lat="48.81078" lon="2.49769">
        <ele>50.61</ele>
        <time>2011-11-29T12:34:57Z</time>
      </trkpt>
      <trkpt lat="48.81081" lon="2.49724">
        <ele>49.16</ele>
        <time>2011-11-29T12:35:20Z</time>
      </trkpt>
      <trkpt lat="48.8109" lon="2.49673">
        <ele>48.68</ele>
        <time>2011-11-29T12:35:47Z</time>
      </trkpt>
      <trkpt lat="48.81094" lon="2.49616">
        <ele>48.68</ele>
        <time>2011-11-29T12:36:18Z</time>
      </trkpt>
      <trkpt lat="48.81103" lon="2.49564">
        <ele>48.2</ele>
        <time>2011-11-29T12:36:46Z</time>
      </trkpt>
      <trkpt lat="48.81112" lon="2.49516">
        <ele>47.24</ele>
        <time>2011-11-29T12:37:22Z</time>
      </trkpt>
      <trkpt lat="48.81115" lon="2.49463">
        <ele>48.2</ele>
        <time>2011-11-29T12:37:51Z</time>
      </trkpt>
      <trkpt lat="48.81126" lon="2.49408">
        <ele>48.2</ele>
        <time>2011-11-29T12:38:19Z</time>
      </trkpt>
      <trkpt lat="48.81131" lon="2.49359">
        <ele>49.65</ele>
        <time>2011-11-29T12:38:49Z</time>
      </trkpt>
      <trkpt lat="48.8114" lon="2.49301">
        <ele>48.2</ele>
        <time>2011-11-29T12:39:18Z</time>
      </trkpt>
      <trkpt lat="48.81153" lon="2.49237">
        <ele>50.13</ele>
        <time>2011-11-29T12:39:48Z</time>
      </trkpt>
      <trkpt lat="48.81157" lon="2.4918">
        <ele>48.2</ele>
        <time>2011-11-29T12:40:15Z</time>
      </trkpt>
      <trkpt lat="48.81171" lon="2.49113">
        <ele>49.16</ele>
        <time>2011-11-29T12:40:44Z</time>
      </trkpt>
      <trkpt lat="48.8118" lon="2.49063">
        <ele>49.16</ele>
        <time>2011-11-29T12:41:12Z</time>
      </trkpt>
      <trkpt lat="48.81196" lon="2.48997">
        <ele>50.61</ele>
        <time>2011-11-29T12:41:41Z</time>
      </trkpt>
      <trkpt lat="48.81208" lon="2.48944">
        <ele>49.65</ele>
        <time>2011-11-29T12:42:06Z</time>
      </trkpt>
      <trkpt lat="48.81225" lon="2.48901">
        <ele>53.01</ele>
        <time>2011-11-29T12:42:35Z</time>
      </trkpt>
      <trkpt lat="48.81236" lon="2.48855">
        <ele>52.05</ele>
        <time>2011-11-29T12:43:03Z</time>
      </trkpt>
      <trkpt lat="48.81249" lon="2.48809">
        <ele>51.09</ele>
        <time>2011-11-29T12:43:29Z</time>
      </trkpt>
      <trkpt lat="48.81259" lon="2.4876">
        <ele>51.57</ele>
        <time>2011-11-29T12:43:55Z</time>
      </trkpt>
      <trkpt lat="48.81267" lon="2.4871">
        <ele>51.57</ele>
        <time>2011-11-29T12:44:23Z</time>
      </trkpt>
      <trkpt lat="48.81282" lon="2.48656">
        <ele>52.53</ele>
        <time>2011-11-29T12:44:45Z</time>
      </trkpt>
      <trkpt lat="48.81286" lon="2.48603">
        <ele>52.53</ele>
        <time>2011-11-29T12:45:09Z</time>
      </trkpt>
      <trkpt lat="48.81289" lon="2.48555">
        <ele>52.53</ele>
        <time>2011-11-29T12:45:38Z</time>
      </trkpt>
      <trkpt lat="48.81299" lon="2.48491">
        <ele>52.53</ele>
        <time>2011-11-29T12:46:10Z</time>
      </trkpt>
      <trkpt lat="48.81306" lon="2.48429">
        <ele>53.01</ele>
        <time>2011-11-29T12:46:45Z</time>
      </trkpt>
      <trkpt lat="48.81313" lon="2.48358">
        <ele>52.53</ele>
        <time>2011-11-29T12:47:17Z</time>
      </trkpt>
      <trkpt lat="48.81321" lon="2.48301">
        <ele>55.41</ele>
        <time>2011-11-29T12:47:48Z</time>
      </trkpt>
      <trkpt lat="48.81331" lon="2.48261">
        <ele>51.09</ele>
        <time>2011-11-29T12:48:37Z</time>
      </trkpt>
      <trkpt lat="48.81343" lon="2.48211">
        <ele>51.57</ele>
        <time>2011-11-29T12:49:04Z</time>
      </trkpt>
      <trkpt lat="48.81357" lon="2.48143">
        <ele>51.09</ele>
        <time>2011-11-29T12:49:35Z</time>
      </trkpt>
      <trkpt lat="48.8137" lon="2.48083">
        <ele>52.53</ele>
        <time>2011-11-29T12:50:10Z</time>
      </trkpt>
      <trkpt lat="48.81388" lon="2.48032">
        <ele>55.89</ele>
        <time>2011-11-29T12:52:50Z</time>
      </trkpt>
      <trkpt lat="48.81395" lon="2.48008">
        <ele>57.34</ele>
        <time>2011-11-29T12:54:51Z</time>
      </trkpt>
      <trkpt lat="48.81397" lon="2.47978">
        <ele>58.78</ele>
        <time>2011-11-29T12:55:18Z</time>
      </trkpt>
      <trkpt lat="48.81445" lon="2.47877">
        <ele>57.34</ele>
        <time>2011-11-29T12:55:43Z</time>
      </trkpt>
      <trkpt lat="48.81467" lon="2.47828">
        <ele>56.86</ele>
        <time>2011-11-29T12:56:10Z</time>
      </trkpt>
      <trkpt lat="48.81485" lon="2.47785">
        <ele>55.41</ele>
        <time>2011-11-29T12:56:30Z</time>
      </trkpt>
      <trkpt lat="48.81499" lon="2.47748">
        <ele>55.89</ele>
        <time>2011-11-29T12:56:52Z</time>
      </trkpt>
      <trkpt lat="48.81512" lon="2.47701">
        <ele>55.41</ele>
        <time>2011-11-29T12:57:22Z</time>
      </trkpt>
      <trkpt lat="48.8153" lon="2.47658">
        <ele>56.37</ele>
        <time>2011-11-29T12:57:44Z</time>
      </trkpt>
      <trkpt lat="48.81538" lon="2.4762">
        <ele>56.37</ele>
        <time>2011-11-29T12:58:06Z</time>
      </trkpt>
      <trkpt lat="48.81557" lon="2.47567">
        <ele>57.82</ele>
        <time>2011-11-29T12:58:32Z</time>
      </trkpt>
      <trkpt lat="48.81569" lon="2.47528">
        <ele>56.37</ele>
        <time>2011-11-29T12:59:01Z</time>
      </trkpt>
      <trkpt lat="48.81588" lon="2.47485">
        <ele>56.86</ele>
        <time>2011-11-29T12:59:29Z</time>
      </trkpt>
      <trkpt lat="48.81613" lon="2.47434">
        <ele>55.41</ele>
        <time>2011-11-29T12:59:59Z</time>
      </trkpt>
      <trkpt lat="48.81637" lon="2.47395">
        <ele>56.37</ele>
        <time>2011-11-29T13:00:22Z</time>
      </trkpt>
      <trkpt lat="48.81662" lon="2.47352">
        <ele>57.34</ele>
        <time>2011-11-29T13:00:44Z</time>
      </trkpt>
      <trkpt lat="48.81692" lon="2.47309">
        <ele>57.34</ele>
        <time>2011-11-29T13:01:05Z</time>
      </trkpt>
      <trkpt lat="48.81727" lon="2.4727">
        <ele>57.82</ele>
        <time>2011-11-29T13:01:29Z</time>
      </trkpt>
      <trkpt lat="48.81746" lon="2.47251">
        <ele>58.3</ele>
        <time>2011-11-29T13:01:53Z</time>
      </trkpt>
      <trkpt lat="48.81778" lon="2.4721">
        <ele>59.74</ele>
        <time>2011-11-29T13:02:18Z</time>
      </trkpt>
      <trkpt lat="48.818" lon="2.47183">
        <ele>57.82</ele>
        <time>2011-11-29T13:02:44Z</time>
      </trkpt>
      <trkpt lat="48.81818" lon="2.47162">
        <ele>58.3</ele>
        <time>2011-11-29T13:03:13Z</time>
      </trkpt>
      <trkpt lat="48.8184" lon="2.47124">
        <ele>59.26</ele>
        <time>2011-11-29T13:03:36Z</time>
      </trkpt>
      <trkpt lat="48.81861" lon="2.47088">
        <ele>58.3</ele>
        <time>2011-11-29T13:03:58Z</time>
      </trkpt>
      <trkpt lat="48.81883" lon="2.47048">
        <ele>59.26</ele>
        <time>2011-11-29T13:04:20Z</time>
      </trkpt>
      <trkpt lat="48.8191" lon="2.47009">
        <ele>59.26</ele>
        <time>2011-11-29T13:04:43Z</time>
      </trkpt>
      <trkpt lat="48.81937" lon="2.46998">
        <ele>58.78</ele>
        <time>2011-11-29T13:06:41Z</time>
      </trkpt>
      <trkpt lat="48.81968" lon="2.46989">
        <ele>57.34</ele>
        <time>2011-11-29T13:07:28Z</time>
      </trkpt>
      <trkpt lat="48.81993" lon="2.46985">
        <ele>56.86</ele>
        <time>2011-11-29T13:07:56Z</time>
      </trkpt>
      <trkpt lat="48.82026" lon="2.46979">
        <ele>63.1</ele>
        <time>2011-11-29T13:08:50Z</time>
      </trkpt>
      <trkpt lat="48.8202" lon="2.46959">
        <ele>66.95</ele>
        <time>2011-11-29T13:09:23Z</time>
      </trkpt>
      <trkpt lat="48.8202" lon="2.46894">
        <ele>65.99</ele>
        <time>2011-11-29T13:09:49Z</time>
      </trkpt>
      <trkpt lat="48.82022" lon="2.46843">
        <ele>62.62</ele>
        <time>2011-11-29T13:10:15Z</time>
      </trkpt>
      <trkpt lat="48.8202" lon="2.46796">
        <ele>62.14</ele>
        <time>2011-11-29T13:10:41Z</time>
      </trkpt>
      <trkpt lat="48.82022" lon="2.46738">
        <ele>62.14</ele>
        <time>2011-11-29T13:11:13Z</time>
      </trkpt>
      <trkpt lat="48.82027" lon="2.46713">
        <ele>63.1</ele>
        <time>2011-11-29T13:11:45Z</time>
      </trkpt>
      <trkpt lat="48.8203" lon="2.46664">
        <ele>65.03</ele>
        <time>2011-11-29T13:12:15Z</time>
      </trkpt>
      <trkpt lat="48.82027" lon="2.4661">
        <ele>65.99</ele>
        <time>2011-11-29T13:12:45Z</time>
      </trkpt>
      <trkpt lat="48.82024" lon="2.46554">
        <ele>68.87</ele>
        <time>2011-11-29T13:13:16Z</time>
      </trkpt>
      <trkpt lat="48.82014" lon="2.46496">
        <ele>68.87</ele>
        <time>2011-11-29T13:13:44Z</time>
      </trkpt>
      <trkpt lat="48.82001" lon="2.46427">
        <ele>73.2</ele>
        <time>2011-11-29T13:14:09Z</time>
      </trkpt>
      <trkpt lat="48.82033" lon="2.46403">
        <ele>72.72</ele>
        <time>2011-11-29T13:15:05Z</time>
      </trkpt>
      <trkpt lat="48.82053" lon="2.46405">
        <ele>78</ele>
        <time>2011-11-29T13:17:14Z</time>
      </trkpt>
    </trkseg>
  </trk>
</gpx>